Time;durP1;ratioP1;P1;durP2;ratioP2;P2;SDS_P1;SDS_P2;PMS_P1;PMS_P2;Temp;Humidity;BMP_temperature;BMP_pressure;BME280_temperature;BME280_humidity;BME280_pressure;Samples;Min_cycle;Max_cycle;Signal;HPM_P1;HPM_P2
2023/11/30 00:00:56;;;;;;;;;;;;;;;-2.70;100.00;99921.41;6213303;23;19955;-74
2023/11/30 00:03:22;;;;;;;;;;;;;;;-2.85;100.00;99912.22;6214253;23;19920;-74
2023/11/30 00:05:47;;;;;;;;;;;;;;;-3.04;100.00;99916.44;6217899;23;19936;-74
2023/11/30 00:08:12;;;;;;;;;;;;;;;-3.17;100.00;99908.75;6216140;23;19912;-74
2023/11/30 00:10:37;;;;;;;;;;;;;;;-3.30;100.00;99911.59;6213974;23;19916;-74
2023/11/30 00:13:03;;;;;;;;;;;;;;;-3.39;100.00;99920.28;6215118;23;19916;-74
2023/11/30 00:15:29;;;;;;;;;;;;;;;-3.29;100.00;99915.88;6215307;23;19935;-75
2023/11/30 00:17:54;;;;;;;;;;;;;;;-3.18;100.00;99912.34;6217336;23;19959;-74
2023/11/30 00:20:19;;;;;;;;;;;;;;;-3.19;100.00;99910.69;6217008;23;19923;-74
2023/11/30 00:22:46;;;;;;;;;;;;;;;-3.30;100.00;99914.22;6216442;23;20106;-74
2023/11/30 00:25:11;;;;;;;;;;;;;;;-3.44;100.00;99911.94;6216580;23;19951;-75
2023/11/30 00:27:36;;;;;;;;;;;;;;;-3.56;100.00;99904.13;6216711;23;19916;-74
2023/11/30 00:30:02;;;;;;;;;;;;;;;-3.68;100.00;99905.13;6216570;23;19916;-73
2023/11/30 00:32:27;;;;;;;;;;;;;;;-3.76;100.00;99904.94;6216558;23;20007;-74
2023/11/30 00:34:52;;;;;;;;;;;;;;;-3.88;100.00;99902.34;6217425;23;19919;-73
2023/11/30 00:37:17;;;;;;;;;;;;;;;-3.94;100.00;99900.25;6220104;23;20372;-73
2023/11/30 00:39:42;;;;;;;;;;;;;;;-4.01;100.00;99893.81;6218797;23;19927;-74
2023/11/30 00:42:08;;;;;;;;;;;;;;;-3.98;100.00;99898.81;6229244;23;19912;-74
2023/11/30 00:44:35;;;;;;;;;;;;;;;-4.01;100.00;99893.81;6228669;23;19919;-74
2023/11/30 00:47:01;;;;;;;;;;;;;;;-4.05;100.00;99892.38;6218301;23;19931;-73
2023/11/30 00:49:26;;;;;;;;;;;;;;;-3.92;100.00;99906.22;6214875;23;19908;-74
2023/11/30 00:51:51;;;;;;;;;;;;;;;-3.98;100.00;99902.31;6215289;23;19927;-74
2023/11/30 00:54:16;;;;;;;;;;;;;;;-4.03;100.00;99906.25;6214675;23;19912;-74
2023/11/30 00:56:42;;;;;;;;;;;;;;;-4.08;100.00;99901.38;6214093;23;19990;-74
2023/11/30 00:59:07;;;;;;;;;;;;;;;-3.94;100.00;99905.50;6215350;23;19916;-74
2023/11/30 01:01:32;;;;;;;;;;;;;;;-3.92;100.00;99902.75;6213891;23;19912;-74
2023/11/30 01:03:57;;;;;;;;;;;;;;;-4.00;100.00;99900.75;6213983;23;19915;-74
2023/11/30 01:06:22;;;;;;;;;;;;;;;-4.07;100.00;99891.72;6215007;23;19912;-75
2023/11/30 01:08:48;;;;;;;;;;;;;;;-4.14;100.00;99892.19;6214085;23;19946;-74
2023/11/30 01:11:13;;;;;;;;;;;;;;;-4.14;100.00;99888.72;6213109;23;20383;-74
2023/11/30 01:13:38;;;;;;;;;;;;;;;-4.09;100.00;99888.38;6215036;23;20321;-74
2023/11/30 01:16:03;;;;;;;;;;;;;;;-4.16;100.00;99896.75;6213958;23;20325;-74
2023/11/30 01:18:29;;;;;;;;;;;;;;;-4.21;100.00;99888.41;6213226;23;20368;-75
2023/11/30 01:20:54;;;;;;;;;;;;;;;-4.25;100.00;99894.88;6216348;23;19923;-74
2023/11/30 01:23:19;;;;;;;;;;;;;;;-4.27;100.00;99894.16;6215474;23;20329;-74
2023/11/30 01:25:45;;;;;;;;;;;;;;;-4.15;100.00;99895.78;6215237;23;19912;-74
2023/11/30 01:28:10;;;;;;;;;;;;;;;-4.03;100.00;99891.31;6216596;23;20037;-74
2023/11/30 01:30:35;;;;;;;;;;;;;;;-3.90;100.00;99890.31;6215897;23;19974;-74
2023/11/30 01:33:00;;;;;;;;;;;;;;;-3.92;100.00;99892.22;6214785;23;19912;-74
2023/11/30 01:35:28;;;;;;;;;;;;;;;-3.95;100.00;99890.69;6216853;23;19916;-74
2023/11/30 01:37:54;;;;;;;;;;;;;;;-3.93;100.00;99883.50;6214749;23;19990;-74
2023/11/30 01:40:19;;;;;;;;;;;;;;;-3.92;100.00;99886.97;6215524;23;19947;-74
2023/11/30 01:42:44;;;;;;;;;;;;;;;-3.98;100.00;99878.66;6217335;23;19991;-74
2023/11/30 01:45:10;;;;;;;;;;;;;;;-4.05;100.00;99880.09;6214424;23;19931;-74
2023/11/30 01:47:35;;;;;;;;;;;;;;;-4.10;100.00;99884.88;6215566;23;19916;-74
2023/11/30 01:50:02;;;;;;;;;;;;;;;-4.13;100.00;99888.63;6215308;23;20220;-72
2023/11/30 01:52:30;;;;;;;;;;;;;;;-4.08;100.00;99882.16;6188430;23;19939;-73
2023/11/30 01:54:56;;;;;;;;;;;;;;;-4.01;100.00;99886.78;6215346;23;19911;-73
2023/11/30 01:57:21;;;;;;;;;;;;;;;-4.08;100.00;99876.91;6216760;23;20273;-72
2023/11/30 01:59:47;;;;;;;;;;;;;;;-4.11;100.00;99878.81;6215099;23;19912;-72
2023/11/30 02:02:12;;;;;;;;;;;;;;;-3.95;100.00;99869.66;6214975;23;19912;-74
2023/11/30 02:04:38;;;;;;;;;;;;;;;-3.82;100.00;99867.66;6216295;23;19951;-73
2023/11/30 02:07:03;;;;;;;;;;;;;;;-3.92;100.00;99872.03;6215519;23;19932;-74
2023/11/30 02:09:29;;;;;;;;;;;;;;;-4.00;100.00;99867.41;6215171;23;19927;-74
2023/11/30 02:11:54;;;;;;;;;;;;;;;-3.98;100.00;99856.75;6216075;23;20506;-73
2023/11/30 02:14:19;;;;;;;;;;;;;;;-3.96;100.00;99862.72;6215235;23;19907;-73
2023/11/30 02:16:44;;;;;;;;;;;;;;;-3.99;100.00;99850.69;6215919;23;19969;-74
2023/11/30 02:19:19;;;;;;;;;;;;;;;-4.01;100.00;99851.75;6216425;23;19948;-73
2023/11/30 02:21:48;;;;;;;;;;;;;;;-4.06;100.00;99841.63;6215833;23;19915;-73
2023/11/30 02:24:14;;;;;;;;;;;;;;;-4.13;100.00;99849.19;6215460;23;19916;-73
2023/11/30 02:26:39;;;;;;;;;;;;;;;-4.19;100.00;99848.88;6215938;23;19958;-73
2023/11/30 02:29:04;;;;;;;;;;;;;;;-4.22;100.00;99842.06;6215206;23;19912;-73
2023/11/30 02:31:29;;;;;;;;;;;;;;;-4.17;100.00;99846.94;6214887;23;19927;-73
2023/11/30 02:33:55;;;;;;;;;;;;;;;-4.18;100.00;99838.22;6216279;23;19912;-73
2023/11/30 02:36:20;;;;;;;;;;;;;;;-4.20;100.00;99831.44;6216037;23;20279;-73
2023/11/30 02:38:45;;;;;;;;;;;;;;;-4.23;100.00;99836.94;6215794;23;19934;-73
2023/11/30 02:41:10;;;;;;;;;;;;;;;-4.27;100.00;99831.94;6214882;23;19930;-73
2023/11/30 02:43:38;;;;;;;;;;;;;;;-4.30;100.00;99828.72;6215795;23;19987;-74
2023/11/30 02:46:06;;;;;;;;;;;;;;;-4.30;100.00;99823.47;6216013;23;19912;-74
2023/11/30 02:48:32;;;;;;;;;;;;;;;-4.31;100.00;99829.69;6215687;23;19916;-73
2023/11/30 02:50:57;;;;;;;;;;;;;;;-4.34;100.00;99828.16;6217487;23;19998;-73
2023/11/30 02:53:22;;;;;;;;;;;;;;;-4.36;100.00;99831.84;6217252;23;19919;-74
2023/11/30 02:55:50;;;;;;;;;;;;;;;-4.42;100.00;99820.91;6216563;23;19966;-74
2023/11/30 02:58:15;;;;;;;;;;;;;;;-4.44;100.00;99820.19;6221071;23;19912;-74
2023/11/30 03:00:41;;;;;;;;;;;;;;;-4.41;100.00;99829.59;6239243;23;19919;-74
2023/11/30 03:03:06;;;;;;;;;;;;;;;-4.44;100.00;99824.59;6234663;23;19987;-74
2023/11/30 03:05:32;;;;;;;;;;;;;;;-4.46;100.00;99822.09;6219742;23;19927;-74
2023/11/30 03:07:57;;;;;;;;;;;;;;;-4.48;100.00;99812.66;6215137;23;19912;-74
2023/11/30 03:10:22;;;;;;;;;;;;;;;-4.48;100.00;99824.03;6214228;23;19916;-74
2023/11/30 03:12:47;;;;;;;;;;;;;;;-4.44;100.00;99819.34;6215726;23;20368;-74
2023/11/30 03:15:14;;;;;;;;;;;;;;;-4.45;100.00;99815.88;6215123;23;20309;-74
2023/11/30 03:17:39;;;;;;;;;;;;;;;-4.49;100.00;99813.63;6213688;23;20030;-74
2023/11/30 03:20:05;;;;;;;;;;;;;;;-4.55;100.00;99820.22;6215253;23;20321;-75
2023/11/30 03:22:30;;;;;;;;;;;;;;;-4.61;100.00;99815.47;6214195;23;19945;-75
2023/11/30 03:24:56;;;;;;;;;;;;;;;-4.66;100.00;99817.63;6215968;23;19900;-75
2023/11/30 03:27:21;;;;;;;;;;;;;;;-4.69;100.00;99813.47;6220393;23;19918;-75
2023/11/30 03:29:46;;;;;;;;;;;;;;;-4.72;100.00;99809.28;6216096;23;19912;-75
2023/11/30 03:32:11;;;;;;;;;;;;;;;-4.73;100.00;99812.88;6213701;23;20467;-75
2023/11/30 03:34:36;;;;;;;;;;;;;;;-4.73;100.00;99810.25;6215298;23;19912;-75
2023/11/30 03:37:02;;;;;;;;;;;;;;;-4.69;100.00;99812.63;6214178;23;19916;-75
2023/11/30 03:39:28;;;;;;;;;;;;;;;-4.64;100.00;99807.84;6212569;23;19999;-75
2023/11/30 03:41:53;;;;;;;;;;;;;;;-4.62;100.00;99816.44;6214676;23;19965;-76
2023/11/30 03:44:18;;;;;;;;;;;;;;;-4.62;100.00;99804.13;6213465;23;20354;-75
2023/11/30 03:46:43;;;;;;;;;;;;;;;-4.62;100.00;99811.19;6215739;23;20642;-75
2023/11/30 03:49:08;;;;;;;;;;;;;;;-4.66;100.00;99815.00;6215808;23;19951;-75
2023/11/30 03:51:34;;;;;;;;;;;;;;;-4.66;100.00;99822.88;6214277;23;19959;-74
2023/11/30 03:53:59;;;;;;;;;;;;;;;-4.65;100.00;99819.31;6217087;23;19915;-75
2023/11/30 03:56:24;;;;;;;;;;;;;;;-4.66;100.00;99812.38;6221416;23;19919;-75
2023/11/30 03:58:49;;;;;;;;;;;;;;;-4.67;100.00;99818.59;6216747;23;19920;-75
2023/11/30 04:01:21;;;;;;;;;;;;;;;-4.68;100.00;99815.13;6215117;23;20402;-75
2023/11/30 04:03:47;;;;;;;;;;;;;;;-4.70;100.00;99818.81;6215323;23;19924;-75
2023/11/30 04:06:17;;;;;;;;;;;;;;;-4.69;100.00;99821.34;6213913;23;19920;-75
2023/11/30 04:08:42;;;;;;;;;;;;;;;-4.64;100.00;99815.72;6214371;23;19916;-75
2023/11/30 04:11:07;;;;;;;;;;;;;;;-4.64;100.00;99813.09;6215389;23;20244;-75
2023/11/30 04:13:32;;;;;;;;;;;;;;;-4.64;100.00;99815.72;6215943;23;20284;-75
2023/11/30 04:15:58;;;;;;;;;;;;;;;-4.65;100.00;99816.69;6217389;23;19928;-75
2023/11/30 04:18:23;;;;;;;;;;;;;;;-4.67;100.00;99818.59;6217680;23;19919;-75
2023/11/30 04:20:49;;;;;;;;;;;;;;;-4.66;100.00;99822.88;6219288;23;19960;-75
2023/11/30 04:23:14;;;;;;;;;;;;;;;-4.63;100.00;99810.34;6220120;23;19916;-75
2023/11/30 04:25:40;;;;;;;;;;;;;;;-4.56;100.00;99826.41;6219829;23;19935;-75
2023/11/30 04:28:05;;;;;;;;;;;;;;;-4.49;100.00;99814.47;6216442;23;19916;-75
2023/11/30 04:30:30;;;;;;;;;;;;;;;-4.43;100.00;99813.13;6214013;23;19920;-75
2023/11/30 04:32:55;;;;;;;;;;;;;;;-4.41;100.00;99809.41;6214817;23;19912;-75
2023/11/30 04:35:20;;;;;;;;;;;;;;;-4.41;100.00;99809.41;6214797;23;20296;-75
2023/11/30 04:37:49;;;;;;;;;;;;;;;-4.33;100.00;99806.19;6214635;23;20287;-76
2023/11/30 04:40:14;;;;;;;;;;;;;;;-4.33;100.00;99803.53;6213624;23;19931;-75
2023/11/30 04:42:39;;;;;;;;;;;;;;;-4.33;100.00;99814.06;6215154;23;19942;-75
2023/11/30 04:45:05;;;;;;;;;;;;;;;-4.34;100.00;99814.16;6214338;23;20225;-75
2023/11/30 04:47:30;;;;;;;;;;;;;;;-4.33;100.00;99810.56;6214632;23;19962;-76
2023/11/30 04:49:55;;;;;;;;;;;;;;;-4.34;100.00;99812.38;6215107;23;19912;-75
2023/11/30 04:52:21;;;;;;;;;;;;;;;-4.34;100.00;99815.00;6214038;23;19919;-75
2023/11/30 04:54:46;;;;;;;;;;;;;;;-4.37;100.00;99817.03;6213314;23;19912;-75
2023/11/30 04:57:12;;;;;;;;;;;;;;;-4.37;100.00;99814.41;6217095;23;19919;-76
2023/11/30 04:59:38;;;;;;;;;;;;;;;-4.30;100.00;99807.69;6216505;23;19912;-75
2023/11/30 05:02:03;;;;;;;;;;;;;;;-4.23;100.00;99806.22;6215942;23;19912;-75
2023/11/30 05:04:28;;;;;;;;;;;;;;;-4.17;100.00;99815.41;6217748;23;20325;-75
2023/11/30 05:06:53;;;;;;;;;;;;;;;-4.17;100.00;99816.22;6216128;23;19927;-76
2023/11/30 05:09:19;;;;;;;;;;;;;;;-4.12;100.00;99813.22;6214809;23;20389;-75
2023/11/30 05:11:46;;;;;;;;;;;;;;;-4.07;100.00;99818.13;6217557;23;19912;-75
2023/11/30 05:14:11;;;;;;;;;;;;;;;-4.11;100.00;99821.00;6190207;23;19908;-75
2023/11/30 05:16:37;;;;;;;;;;;;;;;-4.05;100.00;99824.91;6215085;23;19916;-75
2023/11/30 05:19:02;;;;;;;;;;;;;;;-4.01;100.00;99825.47;6217340;23;19912;-75
2023/11/30 05:21:27;;;;;;;;;;;;;;;-4.00;100.00;99830.63;6215698;23;19955;-76
2023/11/30 05:23:52;;;;;;;;;;;;;;;-4.00;100.00;99830.63;6189093;23;19927;-74
2023/11/30 05:26:18;;;;;;;;;;;;;;;-3.92;100.00;99829.97;6217047;23;19912;-75
2023/11/30 05:28:43;;;;;;;;;;;;;;;-3.89;100.00;99819.19;6215706;23;19938;-75
2023/11/30 05:31:08;;;;;;;;;;;;;;;-3.82;100.00;99819.50;6215365;23;19916;-75
2023/11/30 05:33:33;;;;;;;;;;;;;;;-3.77;100.00;99811.22;6217331;23;19919;-75
2023/11/30 05:35:59;;;;;;;;;;;;;;;-3.75;100.00;99814.56;6216075;23;19912;-75
2023/11/30 05:38:24;;;;;;;;;;;;;;;-3.75;100.00;99814.56;6214769;23;19993;-74
2023/11/30 05:40:49;;;;;;;;;;;;;;;-3.73;100.00;99817.91;6217088;23;19912;-75
2023/11/30 05:43:15;;;;;;;;;;;;;;;-3.73;100.00;99817.91;6216625;23;19959;-75
2023/11/30 05:45:40;;;;;;;;;;;;;;;-3.70;100.00;99815.00;6216757;23;19912;-75
2023/11/30 05:48:05;;;;;;;;;;;;;;;-3.67;100.00;99814.72;6217495;23;20336;-75
2023/11/30 05:50:31;;;;;;;;;;;;;;;-3.74;100.00;99803.91;6216448;23;19958;-75
2023/11/30 05:52:56;;;;;;;;;;;;;;;-3.73;100.00;99810.84;6214768;23;20240;-75
2023/11/30 05:55:21;;;;;;;;;;;;;;;-3.73;100.00;99802.13;6216171;23;20310;-75
2023/11/30 05:57:46;;;;;;;;;;;;;;;-3.73;100.00;99796.88;6216143;23;20245;-75
2023/11/30 06:00:12;;;;;;;;;;;;;;;-3.70;100.00;99809.72;6214992;23;20625;-75
2023/11/30 06:02:37;;;;;;;;;;;;;;;-3.72;100.00;99803.78;6216760;23;20046;-75
2023/11/30 06:05:02;;;;;;;;;;;;;;;-3.71;100.00;99802.81;6216016;23;19915;-75
2023/11/30 06:07:29;;;;;;;;;;;;;;;-3.72;100.00;99799.34;6215959;23;19916;-76
2023/11/30 06:09:54;;;;;;;;;;;;;;;-3.67;100.00;99791.91;6217282;23;19947;-75
2023/11/30 06:12:20;;;;;;;;;;;;;;;-3.67;100.00;99785.81;6215853;23;19922;-74
2023/11/30 06:14:45;;;;;;;;;;;;;;;-3.62;100.00;99791.50;6215804;23;19912;-75
2023/11/30 06:17:11;;;;;;;;;;;;;;;-3.63;100.00;99792.47;6215883;23;19931;-75
2023/11/30 06:19:36;;;;;;;;;;;;;;;-3.60;100.00;99801.88;6214182;23;20575;-75
2023/11/30 06:22:02;;;;;;;;;;;;;;;-3.58;100.00;99795.56;6215465;23;19955;-75
2023/11/30 06:24:28;;;;;;;;;;;;;;;-3.62;100.00;99799.41;6216395;23;19919;-75
2023/11/30 06:26:53;;;;;;;;;;;;;;;-3.59;100.00;99803.56;6216739;23;19920;-75
2023/11/30 06:29:19;;;;;;;;;;;;;;;-3.60;100.00;99810.63;6215858;23;19982;-75
2023/11/30 06:31:44;;;;;;;;;;;;;;;-3.57;100.00;99807.75;6216373;23;19912;-76
2023/11/30 06:34:09;;;;;;;;;;;;;;;-3.58;100.00;99810.47;6216779;23;20309;-76
2023/11/30 06:36:35;;;;;;;;;;;;;;;-3.60;100.00;99818.53;6216531;23;19912;-76
2023/11/30 06:39:00;;;;;;;;;;;;;;;-3.60;100.00;99815.03;6217104;23;19915;-76
2023/11/30 06:41:25;;;;;;;;;;;;;;;-3.59;100.00;99819.34;6218005;23;19918;-77
2023/11/30 06:43:50;;;;;;;;;;;;;;;-3.57;100.00;99823.53;6218319;23;19974;-76
2023/11/30 06:46:20;;;;;;;;;;;;;;;-3.55;100.00;99826.00;6237381;23;19916;-76
2023/11/30 06:48:47;;;;;;;;;;;;;;;-3.52;100.00;99831.84;6230446;23;19912;-76
2023/11/30 06:51:12;;;;;;;;;;;;;;;-3.53;100.00;99830.16;6226452;23;19916;-76
2023/11/30 06:53:37;;;;;;;;;;;;;;;-3.51;100.00;99836.13;6224607;23;20038;-76
2023/11/30 06:56:02;;;;;;;;;;;;;;;-3.52;100.00;99831.84;6216418;23;19912;-76
2023/11/30 06:58:28;;;;;;;;;;;;;;;-3.51;100.00;99833.50;6215253;23;20321;-74
2023/11/30 07:00:53;;;;;;;;;;;;;;;-3.49;100.00;99836.03;6225195;23;19923;-74
2023/11/30 07:03:18;;;;;;;;;;;;;;;-3.45;100.00;99839.22;6224162;23;20249;-74
2023/11/30 07:05:43;;;;;;;;;;;;;;;-3.45;100.00;99842.69;6222069;23;19940;-74
2023/11/30 07:08:09;;;;;;;;;;;;;;;-3.43;100.00;99846.00;6221114;23;19919;-74
2023/11/30 07:10:34;;;;;;;;;;;;;;;-3.42;100.00;99844.22;6220094;23;19916;-74
2023/11/30 07:12:59;;;;;;;;;;;;;;;-3.42;100.00;99841.59;6218804;23;19919;-72
2023/11/30 07:15:24;;;;;;;;;;;;;;;-3.41;100.00;99840.63;6218531;23;19908;-74
2023/11/30 07:17:50;;;;;;;;;;;;;;;-3.38;100.00;99840.38;6218334;23;20333;-75
2023/11/30 07:20:15;;;;;;;;;;;;;;;-3.41;100.00;99846.72;6218449;23;19970;-75
2023/11/30 07:22:41;;;;;;;;;;;;;;;-3.40;100.00;99842.28;6216708;23;19928;-76
2023/11/30 07:25:07;;;;;;;;;;;;;;;-3.42;100.00;99836.31;6218192;23;20210;-78
2023/11/30 07:27:32;;;;;;;;;;;;;;;-3.41;100.00;99838.00;6225312;23;19912;-76
2023/11/30 07:29:58;;;;;;;;;;;;;;;-3.44;100.00;99838.25;6224958;23;19912;-76
2023/11/30 07:32:23;;;;;;;;;;;;;;;-3.44;100.00;99838.25;6226478;23;19912;-75
2023/11/30 07:34:48;;;;;;;;;;;;;;;-3.46;100.00;99848.06;6213664;23;19911;-75
2023/11/30 07:37:15;;;;;;;;;;;;;;;-3.44;100.00;99840.88;6211706;23;20270;-74
2023/11/30 07:39:40;;;;;;;;;;;;;;;-3.45;100.00;99847.09;6213681;23;19912;-75
2023/11/30 07:42:06;;;;;;;;;;;;;;;-3.42;100.00;99846.84;6212672;23;19959;-74
2023/11/30 07:44:31;;;;;;;;;;;;;;;-3.36;100.00;99854.22;6214092;23;19911;-74
2023/11/30 07:46:57;;;;;;;;;;;;;;;-3.36;100.00;99856.88;6213830;23;19911;-74
2023/11/30 07:49:25;;;;;;;;;;;;;;;-3.35;100.00;99858.50;6215262;23;19912;-78
2023/11/30 07:51:53;;;;;;;;;;;;;;;-3.35;100.00;99858.50;6186452;23;19987;-83
2023/11/30 07:54:18;;;;;;;;;;;;;;;-3.35;100.00;99850.59;6214432;23;19947;-78
2023/11/30 07:56:44;;;;;;;;;;;;;;;-3.35;100.00;99853.25;6214088;23;20305;-79
2023/11/30 07:59:12;;;;;;;;;;;;;;;-3.35;100.00;99858.50;6212291;23;19912;-79
2023/11/30 08:01:37;;;;;;;;;;;;;;;-3.33;100.00;99853.13;6213515;23;19912;-78
2023/11/30 08:04:03;;;;;;;;;;;;;;;-3.33;100.00;99851.31;6214056;23;20392;-79
2023/11/30 08:06:28;;;;;;;;;;;;;;;-3.32;100.00;99841.63;6213981;23;19912;-79
2023/11/30 08:08:54;;;;;;;;;;;;;;;-3.30;100.00;99845.78;6217055;23;20328;-79
2023/11/30 08:11:19;;;;;;;;;;;;;;;-3.35;100.00;99853.25;6217231;23;19920;-79
2023/11/30 08:13:49;;;;;;;;;;;;;;;-3.33;100.00;99851.31;6220415;23;19991;-79
2023/11/30 08:16:20;;;;;;;;;;;;;;;-3.31;100.00;99849.38;6214573;23;19912;-78
2023/11/30 08:18:45;;;;;;;;;;;;;;;-3.32;100.00;99852.97;6211977;23;19934;-78
2023/11/30 08:21:11;;;;;;;;;;;;;;;-3.26;100.00;99847.19;6211430;23;19963;-80
2023/11/30 08:23:37;;;;;;;;;;;;;;;-3.22;100.00;99843.34;6212468;23;19911;-79
2023/11/30 08:26:03;;;;;;;;;;;;;;;-3.17;100.00;99848.19;6213563;23;19934;-80
2023/11/30 08:28:30;;;;;;;;;;;;;;;-3.24;100.00;99845.28;6213030;23;19918;-81
2023/11/30 08:30:55;;;;;;;;;;;;;;;-3.18;100.00;99848.34;6215844;23;19922;-78
2023/11/30 08:33:21;;;;;;;;;;;;;;;-3.10;100.00;99846.72;6215720;23;20291;-78
2023/11/30 08:35:48;;;;;;;;;;;;;;;-3.10;100.00;99846.72;6215535;23;19916;-77
2023/11/30 08:38:15;;;;;;;;;;;;;;;-3.07;100.00;99845.59;6217260;23;19919;-81
2023/11/30 08:40:41;;;;;;;;;;;;;;;-3.05;100.00;99849.75;6215716;23;20351;-81
2023/11/30 08:43:06;;;;;;;;;;;;;;;-3.06;100.00;99850.72;6215236;23;19912;-81
2023/11/30 08:45:32;;;;;;;;;;;;;;;-3.01;100.00;99852.97;6215474;23;20061;-81
2023/11/30 08:47:58;;;;;;;;;;;;;;;-2.99;100.00;99848.38;6216358;23;19916;-82
2023/11/30 08:50:23;;;;;;;;;;;;;;;-2.99;100.00;99840.50;6217256;23;19942;-81
2023/11/30 08:52:52;;;;;;;;;;;;;;;-2.99;100.00;99837.03;6231609;23;19938;-81
2023/11/30 08:55:17;;;;;;;;;;;;;;;-2.93;100.00;99832.06;6223928;23;19990;-82
2023/11/30 08:57:42;;;;;;;;;;;;;;;-2.88;100.00;99844.81;6216718;23;19948;-82
2023/11/30 09:00:13;;;;;;;;;;;;;;;-2.86;100.00;99836.81;6216083;23;20022;-82
2023/11/30 09:02:38;;;;;;;;;;;;;;;-2.81;100.00;99835.41;6217650;23;19986;-82
2023/11/30 09:05:12;;;;;;;;;;;;;;;-2.81;100.00;99824.88;6216740;23;19919;-82
2023/11/30 09:07:46;;;;;;;;;;;;;;;-2.74;100.00;99820.72;6216061;23;19912;-82
2023/11/30 09:10:11;;;;;;;;;;;;;;;-2.71;100.00;99824.91;6216418;23;20238;-82
2023/11/30 09:12:54;;;;;;;;;;;;;;;-2.69;100.00;99817.69;6210314;23;20573;-81
2023/11/30 09:15:21;;;;;;;;;;;;;;;-2.69;100.00;99812.44;6216510;23;19912;-81
2023/11/30 09:17:49;;;;;;;;;;;;;;;-2.67;100.00;99814.91;6219059;23;19942;-83
2023/11/30 09:20:29;;;;;;;;;;;;;;;-2.62;100.00;99813.53;6217050;23;20321;-82
2023/11/30 09:23:20;;;;;;;;;;;;;;;;;;;;;
2023/11/30 09:25:46;;;;;;;;;;;;;;;-2.52;100.00;99803.00;6094528;23;19960;-81
2023/11/30 09:31:23;;;;;;;;;;;;;;;-2.46;100.00;99802.47;6214722;23;19922;-82
2023/11/30 09:39:47;;;;;;;;;;;;;;;-2.40;100.00;99803.69;6217717;23;19919;-82
2023/11/30 09:42:16;;;;;;;;;;;;;;;-2.29;100.00;99814.09;6214804;23;20409;-82
2023/11/30 09:44:54;;;;;;;;;;;;;;;-2.20;100.00;99819.53;6188268;23;19920;-83
2023/11/30 09:47:51;;;;;;;;;;;;;;;-2.08;100.00;99826.31;6216113;23;19919;-82
2023/11/30 09:50:28;;;;;;;;;;;;;;;-1.95;100.00;99827.84;6188534;23;19940;-83
2023/11/30 09:53:15;;;;;;;;;;;;;;;-1.94;100.00;99818.94;6215303;23;19922;-83
2023/11/30 09:55:49;;;;;;;;;;;;;;;-1.90;100.00;99828.22;6215562;23;19966;-83
2023/11/30 09:58:25;;;;;;;;;;;;;;;-1.84;100.00;99828.47;6213646;23;19960;-83
2023/11/30 10:00:50;;;;;;;;;;;;;;;-1.74;100.00;99832.91;6214544;23;20382;-83
2023/11/30 10:03:57;;;;;;;;;;;;;;;;;;;;;
2023/11/30 10:06:23;;;;;;;;;;;;;;;-1.51;100.00;99822.03;6204630;23;20007;-84
2023/11/30 10:08:51;;;;;;;;;;;;;;;-1.49;100.00;99812.13;6216231;23;19932;-85
2023/11/30 10:11:17;;;;;;;;;;;;;;;-1.58;100.00;99822.59;6216561;23;20273;-84
2023/11/30 10:13:44;;;;;;;;;;;;;;;-1.48;100.00;99811.16;6230673;23;19904;-84
2023/11/30 10:16:10;;;;;;;;;;;;;;;-1.38;100.00;99812.78;6224200;23;19919;-84
2023/11/30 10:18:38;;;;;;;;;;;;;;;-1.20;100.00;99814.66;6215615;23;19920;-83
2023/11/30 10:21:04;;;;;;;;;;;;;;;-1.05;100.00;99804.47;6215104;23;19922;-80
2023/11/30 10:23:48;;;;;;;;;;;;;;;-0.93;100.00;99805.09;6187772;23;19991;-79
2023/11/30 10:26:15;;;;;;;;;;;;;;;-1.03;100.00;99796.38;6206955;23;20007;-79
2023/11/30 10:28:43;;;;;;;;;;;;;;;-0.94;100.00;99798.16;6189243;23;19987;-80
2023/11/30 10:31:24;;;;;;;;;;;;;;;-0.99;100.00;99782.75;6218869;23;19919;-79
2023/11/30 10:33:58;;;;;;;;;;;;;;;-0.95;100.00;99781.44;6199032;23;19912;-80
2023/11/30 10:36:26;;;;;;;;;;;;;;;-1.00;100.00;99780.22;6221618;23;19931;-80
2023/11/30 10:38:53;;;;;;;;;;;;;;;-1.01;100.00;99786.50;6190172;23;19912;-79
2023/11/30 10:41:22;;;;;;;;;;;;;;;-1.19;100.00;99783.81;6215038;23;20377;-78
2023/11/30 10:43:48;;;;;;;;;;;;;;;-1.32;100.00;99790.25;6213389;23;20043;-78
2023/11/30 10:46:13;;;;;;;;;;;;;;;-1.45;100.00;99787.97;6214016;23;20390;-78
2023/11/30 10:48:39;;;;;;;;;;;;;;;-1.52;100.00;99794.78;6185545;23;20316;-78
2023/11/30 10:51:04;;;;;;;;;;;;;;;-1.51;100.00;99796.47;6213267;23;19912;-78
2023/11/30 10:53:44;;;;;;;;;;;;;;;-1.44;100.00;99794.91;6213076;23;19919;-79
2023/11/30 10:56:10;;;;;;;;;;;;;;;-1.19;100.00;99799.66;6212949;23;19967;-78
2023/11/30 10:58:35;;;;;;;;;;;;;;;-0.94;100.00;99787.56;6213497;23;19916;-80
2023/11/30 11:01:01;;;;;;;;;;;;;;;-0.65;100.00;99791.81;6211871;23;19978;-81
2023/11/30 11:03:27;;;;;;;;;;;;;;;-0.38;100.00;99790.09;6208785;23;19939;-81
2023/11/30 11:08:17;;;;;;;;;;;;;;;0.30;100.00;99791.25;6213764;23;19920;-82
2023/11/30 11:10:48;;;;;;;;;;;;;;;0.22;100.00;99793.84;6195930;23;19915;-88
2023/11/30 11:13:29;;;;;;;;;;;;;;;0.27;100.00;99794.22;6213432;23;19927;-79
2023/11/30 11:16:02;;;;;;;;;;;;;;;0.43;100.00;99790.84;6185507;23;19912;-77
2023/11/30 11:18:35;;;;;;;;;;;;;;;0.19;100.00;99795.00;6212017;23;19908;-78
2023/11/30 11:21:01;;;;;;;;;;;;;;;0.22;100.00;99791.19;6212751;23;19927;-77
2023/11/30 11:23:32;;;;;;;;;;;;;;;0.38;100.00;99801.88;6213051;23;19912;-77
2023/11/30 11:25:58;;;;;;;;;;;;;;;0.22;100.00;99797.34;6213032;23;19923;-77
2023/11/30 11:28:26;;;;;;;;;;;;;;;0.47;100.00;99796.63;6212776;23;19987;-77
2023/11/30 11:30:57;;;;;;;;;;;;;;;0.59;100.00;99792.72;6213204;23;19912;-77
2023/11/30 11:33:24;;;;;;;;;;;;;;;0.57;100.00;99797.34;6225890;23;19916;-78
2023/11/30 11:35:49;;;;;;;;;;;;;;;0.64;100.00;99801.03;6234463;23;19968;-78
2023/11/30 11:38:14;;;;;;;;;;;;;;;0.34;100.00;99803.19;6219267;23;19919;-78
2023/11/30 11:40:42;;;;;;;;;;;;;;;0.45;100.00;99807.38;6213428;23;19920;-78
2023/11/30 11:43:07;;;;;;;;;;;;;;;0.41;100.00;99806.88;6212182;23;19918;-78
2023/11/30 11:45:33;;;;;;;;;;;;;;;0.71;100.00;99801.22;6211300;23;20018;-78
2023/11/30 11:47:58;;;;;;;;;;;;;;;0.81;100.00;99799.28;6212694;23;19912;-79
2023/11/30 11:50:23;;;;;;;;;;;;;;;0.72;100.00;99794.94;6184963;23;19943;-78
2023/11/30 11:52:49;;;;;;;;;;;;;;;0.73;100.00;99793.94;6213970;23;20252;-78
2023/11/30 11:55:15;;;;;;;;;;;;;;;0.93;100.00;99791.88;6213734;23;19916;-77
2023/11/30 11:57:41;;;;;;;;;;;;;;;0.80;100.00;99794.16;6212532;23;19912;-78
2023/11/30 12:00:07;;;;;;;;;;;;;;;0.51;100.00;99798.00;6220933;23;19960;-78
2023/11/30 12:02:34;;;;;;;;;;;;;;;0.34;100.00;99792.63;6233541;23;19926;-78
2023/11/30 12:05:12;;;;;;;;;;;;;;;0.08;100.00;99792.59;6214236;23;19923;-78
2023/11/30 12:07:50;;;;;;;;;;;;;;;0.01;100.00;99794.19;6215865;23;19924;-78
2023/11/30 12:10:25;;;;;;;;;;;;;;;-0.06;100.00;99786.06;6213202;23;20304;-78
2023/11/30 12:12:51;;;;;;;;;;;;;;;-0.20;100.00;99782.97;6211333;23;19908;-78
2023/11/30 12:15:16;;;;;;;;;;;;;;;-0.28;100.00;99796.13;6212759;23;19967;-78
2023/11/30 12:17:41;;;;;;;;;;;;;;;-0.31;100.00;99783.19;6213376;23;19916;-78
2023/11/30 12:20:06;;;;;;;;;;;;;;;-0.32;100.00;99786.84;6211908;23;20128;-78
2023/11/30 12:22:32;;;;;;;;;;;;;;;-0.39;100.00;99783.16;6214211;23;19918;-77
2023/11/30 12:24:57;;;;;;;;;;;;;;;-0.40;100.00;99778.84;6210713;23;19918;-77
2023/11/30 12:27:22;;;;;;;;;;;;;;;-0.38;100.00;99782.16;6212511;23;19915;-78
2023/11/30 12:29:47;;;;;;;;;;;;;;;-0.44;100.00;99780.94;6212003;23;19950;-76
2023/11/30 12:32:13;;;;;;;;;;;;;;;-0.43;100.00;99781.78;6211014;23;19973;-77
2023/11/30 12:34:38;;;;;;;;;;;;;;;-0.40;100.00;99778.84;6211317;23;19919;-80
2023/11/30 12:37:03;;;;;;;;;;;;;;;-0.41;100.00;99782.47;6212340;23;20225;-76
2023/11/30 12:39:28;;;;;;;;;;;;;;;-0.43;100.00;99782.59;6211107;23;20125;-76
2023/11/30 12:41:54;;;;;;;;;;;;;;;-0.48;100.00;99788.34;6212008;23;19919;-76
2023/11/30 12:44:19;;;;;;;;;;;;;;;-0.47;100.00;99784.72;6212350;23;20010;-77
2023/11/30 12:46:45;;;;;;;;;;;;;;;-0.53;100.00;99780.03;6210486;23;19924;-77
2023/11/30 12:49:10;;;;;;;;;;;;;;;-0.60;100.00;99789.56;6212519;23;19916;-76